sensor_id;sensor_type;location;lat;lon;timestamp;P1;durP1;ratioP1;P2;durP2;ratioP2
68475;SDS011;55464;48.266;14.188;2023-07-13T00:00:10;14.43;;;4.20;;
68475;SDS011;55464;48.266;14.188;2023-07-13T00:05:06;11.20;;;4.72;;
68475;SDS011;55464;48.266;14.188;2023-07-13T00:07:31;17.20;;;5.18;;
68475;SDS011;55464;48.266;14.188;2023-07-13T00:09:57;11.07;;;3.97;;
68475;SDS011;55464;48.266;14.188;2023-07-13T00:14:55;15.43;;;3.63;;
68475;SDS011;55464;48.266;14.188;2023-07-13T00:17:22;11.38;;;4.10;;
68475;SDS011;55464;48.266;14.188;2023-07-13T00:19:47;9.75;;;4.25;;
68475;SDS011;55464;48.266;14.188;2023-07-13T00:22:13;10.35;;;3.70;;
68475;SDS011;55464;48.266;14.188;2023-07-13T00:24:38;13.05;;;4.18;;
68475;SDS011;55464;48.266;14.188;2023-07-13T00:27:07;12.65;;;5.68;;
68475;SDS011;55464;48.266;14.188;2023-07-13T00:29:34;19.65;;;3.97;;
68475;SDS011;55464;48.266;14.188;2023-07-13T00:32:00;12.73;;;4.50;;
68475;SDS011;55464;48.266;14.188;2023-07-13T00:34:25;15.80;;;4.47;;
68475;SDS011;55464;48.266;14.188;2023-07-13T00:36:51;10.88;;;5.35;;
68475;SDS011;55464;48.266;14.188;2023-07-13T00:39:16;13.25;;;4.25;;
68475;SDS011;55464;48.266;14.188;2023-07-13T00:41:42;16.27;;;4.38;;
68475;SDS011;55464;48.266;14.188;2023-07-13T00:44:18;13.70;;;5.00;;
68475;SDS011;55464;48.266;14.188;2023-07-13T00:46:44;9.70;;;4.63;;
68475;SDS011;55464;48.266;14.188;2023-07-13T00:49:12;9.70;;;4.68;;
68475;SDS011;55464;48.266;14.188;2023-07-13T00:51:44;9.95;;;4.40;;
68475;SDS011;55464;48.266;14.188;2023-07-13T00:54:14;14.35;;;3.63;;
68475;SDS011;55464;48.266;14.188;2023-07-13T00:56:43;14.18;;;3.83;;
68475;SDS011;55464;48.266;14.188;2023-07-13T00:59:11;8.13;;;3.90;;
68475;SDS011;55464;48.266;14.188;2023-07-13T01:01:40;10.90;;;3.70;;
68475;SDS011;55464;48.266;14.188;2023-07-13T01:04:06;8.77;;;3.35;;
68475;SDS011;55464;48.266;14.188;2023-07-13T01:06:34;9.73;;;3.47;;
68475;SDS011;55464;48.266;14.188;2023-07-13T01:09:01;12.25;;;4.07;;
68475;SDS011;55464;48.266;14.188;2023-07-13T01:11:26;14.48;;;3.47;;
68475;SDS011;55464;48.266;14.188;2023-07-13T01:13:52;11.73;;;3.63;;
68475;SDS011;55464;48.266;14.188;2023-07-13T01:16:25;11.88;;;3.33;;
68475;SDS011;55464;48.266;14.188;2023-07-13T01:18:53;7.90;;;3.13;;
68475;SDS011;55464;48.266;14.188;2023-07-13T01:23:48;7.37;;;3.20;;
68475;SDS011;55464;48.266;14.188;2023-07-13T01:26:13;4.80;;;3.00;;
68475;SDS011;55464;48.266;14.188;2023-07-13T01:28:39;10.43;;;3.30;;
68475;SDS011;55464;48.266;14.188;2023-07-13T01:31:04;9.00;;;3.20;;
68475;SDS011;55464;48.266;14.188;2023-07-13T01:33:30;6.15;;;3.40;;
68475;SDS011;55464;48.266;14.188;2023-07-13T01:35:55;10.77;;;3.75;;
68475;SDS011;55464;48.266;14.188;2023-07-13T01:38:23;10.52;;;3.97;;
68475;SDS011;55464;48.266;14.188;2023-07-13T01:40:50;11.02;;;3.40;;
68475;SDS011;55464;48.266;14.188;2023-07-13T01:43:19;17.77;;;4.00;;
68475;SDS011;55464;48.266;14.188;2023-07-13T01:45:44;7.60;;;3.63;;
68475;SDS011;55464;48.266;14.188;2023-07-13T01:48:11;5.93;;;3.95;;
68475;SDS011;55464;48.266;14.188;2023-07-13T01:50:37;10.45;;;4.28;;
68475;SDS011;55464;48.266;14.188;2023-07-13T01:53:02;8.48;;;4.00;;
68475;SDS011;55464;48.266;14.188;2023-07-13T01:55:28;7.85;;;4.15;;
68475;SDS011;55464;48.266;14.188;2023-07-13T01:57:54;9.40;;;4.05;;
68475;SDS011;55464;48.266;14.188;2023-07-13T02:00:20;13.45;;;4.63;;
68475;SDS011;55464;48.266;14.188;2023-07-13T02:02:46;6.97;;;4.40;;
68475;SDS011;55464;48.266;14.188;2023-07-13T02:05:12;9.85;;;4.20;;
68475;SDS011;55464;48.266;14.188;2023-07-13T02:07:39;8.98;;;4.05;;
68475;SDS011;55464;48.266;14.188;2023-07-13T02:10:05;9.88;;;4.15;;
68475;SDS011;55464;48.266;14.188;2023-07-13T02:12:32;10.80;;;4.70;;
68475;SDS011;55464;48.266;14.188;2023-07-13T02:14:58;8.10;;;4.38;;
68475;SDS011;55464;48.266;14.188;2023-07-13T02:17:23;8.38;;;4.40;;
68475;SDS011;55464;48.266;14.188;2023-07-13T02:19:49;14.18;;;4.70;;
68475;SDS011;55464;48.266;14.188;2023-07-13T02:22:14;8.60;;;4.32;;
68475;SDS011;55464;48.266;14.188;2023-07-13T02:24:40;8.20;;;4.40;;
68475;SDS011;55464;48.266;14.188;2023-07-13T02:27:05;9.48;;;4.30;;
68475;SDS011;55464;48.266;14.188;2023-07-13T02:29:31;10.13;;;5.20;;
68475;SDS011;55464;48.266;14.188;2023-07-13T02:31:56;10.40;;;4.70;;
68475;SDS011;55464;48.266;14.188;2023-07-13T02:34:22;10.23;;;4.75;;
68475;SDS011;55464;48.266;14.188;2023-07-13T02:36:47;9.35;;;5.32;;
68475;SDS011;55464;48.266;14.188;2023-07-13T02:39:12;7.07;;;4.68;;
68475;SDS011;55464;48.266;14.188;2023-07-13T02:41:39;13.77;;;4.75;;
68475;SDS011;55464;48.266;14.188;2023-07-13T02:44:04;8.30;;;4.78;;
68475;SDS011;55464;48.266;14.188;2023-07-13T02:46:33;9.35;;;5.30;;
68475;SDS011;55464;48.266;14.188;2023-07-13T02:51:25;10.10;;;4.93;;
68475;SDS011;55464;48.266;14.188;2023-07-13T02:53:51;12.77;;;5.13;;
68475;SDS011;55464;48.266;14.188;2023-07-13T02:56:17;10.93;;;5.45;;
68475;SDS011;55464;48.266;14.188;2023-07-13T02:58:47;6.90;;;4.63;;
68475;SDS011;55464;48.266;14.188;2023-07-13T03:01:13;12.50;;;5.40;;
68475;SDS011;55464;48.266;14.188;2023-07-13T03:03:43;8.82;;;5.07;;
68475;SDS011;55464;48.266;14.188;2023-07-13T03:06:08;11.27;;;5.13;;
68475;SDS011;55464;48.266;14.188;2023-07-13T03:08:33;12.77;;;4.90;;
68475;SDS011;55464;48.266;14.188;2023-07-13T03:11:01;8.88;;;5.32;;
68475;SDS011;55464;48.266;14.188;2023-07-13T03:13:32;6.22;;;4.82;;
68475;SDS011;55464;48.266;14.188;2023-07-13T03:15:58;9.40;;;4.45;;
68475;SDS011;55464;48.266;14.188;2023-07-13T03:18:23;17.80;;;4.85;;
68475;SDS011;55464;48.266;14.188;2023-07-13T03:20:50;13.63;;;4.57;;
68475;SDS011;55464;48.266;14.188;2023-07-13T03:23:16;8.80;;;4.45;;
68475;SDS011;55464;48.266;14.188;2023-07-13T03:25:42;9.75;;;4.25;;
68475;SDS011;55464;48.266;14.188;2023-07-13T03:28:07;11.18;;;3.90;;
68475;SDS011;55464;48.266;14.188;2023-07-13T03:30:33;9.15;;;4.43;;
68475;SDS011;55464;48.266;14.188;2023-07-13T03:32:58;8.63;;;4.47;;
68475;SDS011;55464;48.266;14.188;2023-07-13T03:35:24;4.68;;;4.10;;
68475;SDS011;55464;48.266;14.188;2023-07-13T03:37:49;11.35;;;3.72;;
68475;SDS011;55464;48.266;14.188;2023-07-13T03:40:15;10.60;;;4.50;;
68475;SDS011;55464;48.266;14.188;2023-07-13T03:42:41;7.53;;;3.63;;
68475;SDS011;55464;48.266;14.188;2023-07-13T03:45:06;14.23;;;3.90;;
68475;SDS011;55464;48.266;14.188;2023-07-13T03:47:32;6.47;;;4.28;;
68475;SDS011;55464;48.266;14.188;2023-07-13T03:49:58;5.35;;;3.70;;
68475;SDS011;55464;48.266;14.188;2023-07-13T03:52:23;9.73;;;4.60;;
68475;SDS011;55464;48.266;14.188;2023-07-13T03:54:48;9.85;;;4.30;;
68475;SDS011;55464;48.266;14.188;2023-07-13T03:57:14;6.95;;;4.43;;
68475;SDS011;55464;48.266;14.188;2023-07-13T03:59:39;9.32;;;4.43;;
68475;SDS011;55464;48.266;14.188;2023-07-13T04:02:05;11.35;;;4.30;;
68475;SDS011;55464;48.266;14.188;2023-07-13T04:04:30;6.40;;;4.10;;
68475;SDS011;55464;48.266;14.188;2023-07-13T04:06:57;14.25;;;4.38;;
68475;SDS011;55464;48.266;14.188;2023-07-13T04:09:23;10.05;;;3.97;;
68475;SDS011;55464;48.266;14.188;2023-07-13T04:11:50;10.00;;;4.70;;
68475;SDS011;55464;48.266;14.188;2023-07-13T04:14:15;7.40;;;4.47;;
68475;SDS011;55464;48.266;14.188;2023-07-13T04:16:41;13.25;;;3.80;;
68475;SDS011;55464;48.266;14.188;2023-07-13T04:19:07;9.10;;;3.78;;
68475;SDS011;55464;48.266;14.188;2023-07-13T04:21:35;8.38;;;3.72;;
68475;SDS011;55464;48.266;14.188;2023-07-13T04:24:01;9.25;;;4.25;;
68475;SDS011;55464;48.266;14.188;2023-07-13T04:26:28;4.50;;;3.40;;
68475;SDS011;55464;48.266;14.188;2023-07-13T04:28:54;7.65;;;3.65;;
68475;SDS011;55464;48.266;14.188;2023-07-13T04:31:20;4.15;;;3.60;;
68475;SDS011;55464;48.266;14.188;2023-07-13T04:33:45;11.25;;;4.40;;
68475;SDS011;55464;48.266;14.188;2023-07-13T04:36:11;7.15;;;4.05;;
68475;SDS011;55464;48.266;14.188;2023-07-13T04:38:36;5.80;;;3.92;;
68475;SDS011;55464;48.266;14.188;2023-07-13T04:41:03;9.13;;;3.65;;
68475;SDS011;55464;48.266;14.188;2023-07-13T04:43:31;8.63;;;4.28;;
68475;SDS011;55464;48.266;14.188;2023-07-13T04:45:57;9.13;;;3.55;;
68475;SDS011;55464;48.266;14.188;2023-07-13T04:48:31;10.75;;;3.90;;
68475;SDS011;55464;48.266;14.188;2023-07-13T04:50:58;12.48;;;4.18;;
68475;SDS011;55464;48.266;14.188;2023-07-13T04:53:24;20.45;;;5.50;;
68475;SDS011;55464;48.266;14.188;2023-07-13T04:55:50;9.13;;;4.00;;
68475;SDS011;55464;48.266;14.188;2023-07-13T04:58:16;11.15;;;4.38;;
68475;SDS011;55464;48.266;14.188;2023-07-13T05:00:41;9.85;;;4.40;;
68475;SDS011;55464;48.266;14.188;2023-07-13T05:03:07;15.82;;;4.95;;
68475;SDS011;55464;48.266;14.188;2023-07-13T05:05:32;11.48;;;4.25;;
68475;SDS011;55464;48.266;14.188;2023-07-13T05:07:57;5.68;;;3.60;;
68475;SDS011;55464;48.266;14.188;2023-07-13T05:10:23;11.73;;;5.93;;
68475;SDS011;55464;48.266;14.188;2023-07-13T05:12:49;5.15;;;4.43;;
68475;SDS011;55464;48.266;14.188;2023-07-13T05:15:15;16.38;;;5.85;;
68475;SDS011;55464;48.266;14.188;2023-07-13T05:17:45;6.50;;;3.88;;
68475;SDS011;55464;48.266;14.188;2023-07-13T05:20:11;10.15;;;4.80;;
68475;SDS011;55464;48.266;14.188;2023-07-13T05:22:37;7.93;;;4.28;;
68475;SDS011;55464;48.266;14.188;2023-07-13T05:25:06;11.93;;;4.28;;
68475;SDS011;55464;48.266;14.188;2023-07-13T05:29:58;8.10;;;4.43;;
68475;SDS011;55464;48.266;14.188;2023-07-13T05:32:23;7.50;;;4.20;;
68475;SDS011;55464;48.266;14.188;2023-07-13T05:34:49;8.75;;;4.50;;
68475;SDS011;55464;48.266;14.188;2023-07-13T05:37:14;7.95;;;4.03;;
68475;SDS011;55464;48.266;14.188;2023-07-13T05:39:39;8.93;;;4.20;;
68475;SDS011;55464;48.266;14.188;2023-07-13T05:42:05;14.40;;;4.05;;
68475;SDS011;55464;48.266;14.188;2023-07-13T05:44:31;7.15;;;4.20;;
68475;SDS011;55464;48.266;14.188;2023-07-13T05:46:56;8.73;;;4.60;;
68475;SDS011;55464;48.266;14.188;2023-07-13T05:49:22;7.97;;;4.70;;
68475;SDS011;55464;48.266;14.188;2023-07-13T05:51:48;12.35;;;4.40;;
68475;SDS011;55464;48.266;14.188;2023-07-13T05:54:14;8.23;;;5.07;;
68475;SDS011;55464;48.266;14.188;2023-07-13T05:56:39;13.48;;;5.10;;
68475;SDS011;55464;48.266;14.188;2023-07-13T05:59:05;6.47;;;4.57;;
68475;SDS011;55464;48.266;14.188;2023-07-13T06:01:30;7.40;;;4.45;;
68475;SDS011;55464;48.266;14.188;2023-07-13T06:03:56;8.50;;;5.00;;
68475;SDS011;55464;48.266;14.188;2023-07-13T06:06:22;7.43;;;4.55;;
68475;SDS011;55464;48.266;14.188;2023-07-13T06:08:47;11.65;;;5.03;;
68475;SDS011;55464;48.266;14.188;2023-07-13T06:11:14;11.65;;;4.68;;
68475;SDS011;55464;48.266;14.188;2023-07-13T06:13:44;10.23;;;4.55;;
68475;SDS011;55464;48.266;14.188;2023-07-13T06:16:10;9.18;;;5.30;;
68475;SDS011;55464;48.266;14.188;2023-07-13T06:18:36;9.00;;;4.80;;
68475;SDS011;55464;48.266;14.188;2023-07-13T06:21:06;11.05;;;4.90;;
68475;SDS011;55464;48.266;14.188;2023-07-13T06:23:33;12.98;;;5.13;;
68475;SDS011;55464;48.266;14.188;2023-07-13T06:25:58;7.57;;;5.07;;
68475;SDS011;55464;48.266;14.188;2023-07-13T06:28:24;8.75;;;4.78;;
68475;SDS011;55464;48.266;14.188;2023-07-13T06:30:49;9.77;;;4.78;;
68475;SDS011;55464;48.266;14.188;2023-07-13T06:33:15;11.55;;;6.35;;
68475;SDS011;55464;48.266;14.188;2023-07-13T06:35:40;7.40;;;4.75;;
68475;SDS011;55464;48.266;14.188;2023-07-13T06:38:05;8.80;;;4.80;;
68475;SDS011;55464;48.266;14.188;2023-07-13T06:40:31;10.68;;;5.53;;
68475;SDS011;55464;48.266;14.188;2023-07-13T06:42:56;9.82;;;5.70;;
68475;SDS011;55464;48.266;14.188;2023-07-13T06:45:22;12.13;;;5.32;;
68475;SDS011;55464;48.266;14.188;2023-07-13T06:47:47;14.95;;;4.85;;
68475;SDS011;55464;48.266;14.188;2023-07-13T06:50:14;11.13;;;5.13;;
68475;SDS011;55464;48.266;14.188;2023-07-13T06:52:39;9.75;;;5.03;;
68475;SDS011;55464;48.266;14.188;2023-07-13T06:55:05;7.78;;;4.38;;
68475;SDS011;55464;48.266;14.188;2023-07-13T06:57:31;5.20;;;3.80;;
68475;SDS011;55464;48.266;14.188;2023-07-13T06:59:56;5.45;;;4.03;;
68475;SDS011;55464;48.266;14.188;2023-07-13T07:02:22;6.55;;;3.80;;
68475;SDS011;55464;48.266;14.188;2023-07-13T07:04:47;5.20;;;3.40;;
68475;SDS011;55464;48.266;14.188;2023-07-13T07:07:13;5.30;;;3.65;;
68475;SDS011;55464;48.266;14.188;2023-07-13T07:09:38;7.80;;;4.05;;
68475;SDS011;55464;48.266;14.188;2023-07-13T07:12:04;5.70;;;3.30;;
68475;SDS011;55464;48.266;14.188;2023-07-13T07:14:29;6.65;;;3.08;;
68475;SDS011;55464;48.266;14.188;2023-07-13T07:16:55;3.95;;;3.35;;
68475;SDS011;55464;48.266;14.188;2023-07-13T07:19:21;7.15;;;3.20;;
68475;SDS011;55464;48.266;14.188;2023-07-13T07:21:46;4.32;;;2.50;;
68475;SDS011;55464;48.266;14.188;2023-07-13T07:24:11;9.25;;;2.60;;
68475;SDS011;55464;48.266;14.188;2023-07-13T07:26:37;6.95;;;2.85;;
68475;SDS011;55464;48.266;14.188;2023-07-13T07:29:02;4.88;;;2.72;;
68475;SDS011;55464;48.266;14.188;2023-07-13T07:31:28;4.78;;;2.53;;
68475;SDS011;55464;48.266;14.188;2023-07-13T07:33:53;8.93;;;2.60;;
68475;SDS011;55464;48.266;14.188;2023-07-13T07:36:19;9.27;;;3.10;;
68475;SDS011;55464;48.266;14.188;2023-07-13T07:38:44;7.25;;;2.47;;
68475;SDS011;55464;48.266;14.188;2023-07-13T07:41:10;3.13;;;2.80;;
68475;SDS011;55464;48.266;14.188;2023-07-13T07:43:37;8.95;;;3.47;;
68475;SDS011;55464;48.266;14.188;2023-07-13T07:46:03;7.10;;;3.42;;
68475;SDS011;55464;48.266;14.188;2023-07-13T07:48:28;5.20;;;2.75;;
68475;SDS011;55464;48.266;14.188;2023-07-13T07:50:54;4.22;;;2.78;;
68475;SDS011;55464;48.266;14.188;2023-07-13T07:53:19;4.10;;;3.00;;
68475;SDS011;55464;48.266;14.188;2023-07-13T07:55:44;7.80;;;4.13;;
68475;SDS011;55464;48.266;14.188;2023-07-13T07:58:10;4.57;;;3.70;;
68475;SDS011;55464;48.266;14.188;2023-07-13T08:00:35;3.80;;;3.50;;
68475;SDS011;55464;48.266;14.188;2023-07-13T08:03:01;5.80;;;3.50;;
68475;SDS011;55464;48.266;14.188;2023-07-13T08:05:27;8.65;;;3.97;;
68475;SDS011;55464;48.266;14.188;2023-07-13T08:07:53;6.28;;;3.60;;
68475;SDS011;55464;48.266;14.188;2023-07-13T08:10:19;4.88;;;3.50;;
68475;SDS011;55464;48.266;14.188;2023-07-13T08:12:44;5.70;;;3.47;;
68475;SDS011;55464;48.266;14.188;2023-07-13T08:15:11;7.10;;;3.63;;
68475;SDS011;55464;48.266;14.188;2023-07-13T08:17:38;7.10;;;3.22;;
68475;SDS011;55464;48.266;14.188;2023-07-13T08:20:04;4.85;;;3.03;;
68475;SDS011;55464;48.266;14.188;2023-07-13T08:22:30;9.95;;;3.33;;
68475;SDS011;55464;48.266;14.188;2023-07-13T08:24:55;4.43;;;3.13;;
68475;SDS011;55464;48.266;14.188;2023-07-13T08:27:24;5.13;;;3.20;;
68475;SDS011;55464;48.266;14.188;2023-07-13T08:29:50;5.70;;;2.90;;
68475;SDS011;55464;48.266;14.188;2023-07-13T08:32:17;5.82;;;3.63;;
68475;SDS011;55464;48.266;14.188;2023-07-13T08:34:43;8.30;;;3.28;;
68475;SDS011;55464;48.266;14.188;2023-07-13T08:37:09;8.40;;;3.20;;
68475;SDS011;55464;48.266;14.188;2023-07-13T08:39:35;4.60;;;3.53;;
68475;SDS011;55464;48.266;14.188;2023-07-13T08:42:05;3.83;;;2.97;;
68475;SDS011;55464;48.266;14.188;2023-07-13T08:44:44;8.50;;;3.33;;
68475;SDS011;55464;48.266;14.188;2023-07-13T08:47:14;9.38;;;3.20;;
68475;SDS011;55464;48.266;14.188;2023-07-13T08:49:41;5.13;;;3.05;;
68475;SDS011;55464;48.266;14.188;2023-07-13T08:54:41;4.57;;;3.03;;
68475;SDS011;55464;48.266;14.188;2023-07-13T08:57:15;5.32;;;2.95;;
68475;SDS011;55464;48.266;14.188;2023-07-13T08:59:43;3.58;;;2.83;;
68475;SDS011;55464;48.266;14.188;2023-07-13T09:12:35;6.47;;;3.08;;
68475;SDS011;55464;48.266;14.188;2023-07-13T09:15:30;7.43;;;2.97;;
68475;SDS011;55464;48.266;14.188;2023-07-13T09:18:08;7.22;;;3.20;;
68475;SDS011;55464;48.266;14.188;2023-07-13T09:20:42;5.13;;;2.75;;
68475;SDS011;55464;48.266;14.188;2023-07-13T09:23:17;4.78;;;2.97;;
68475;SDS011;55464;48.266;14.188;2023-07-13T09:25:51;8.13;;;2.90;;
68475;SDS011;55464;48.266;14.188;2023-07-13T09:28:26;3.35;;;2.90;;
68475;SDS011;55464;48.266;14.188;2023-07-13T09:30:58;5.18;;;3.03;;
68475;SDS011;55464;48.266;14.188;2023-07-13T09:33:28;6.20;;;2.95;;
68475;SDS011;55464;48.266;14.188;2023-07-13T09:35:56;3.83;;;2.72;;
68475;SDS011;55464;48.266;14.188;2023-07-13T09:38:27;7.50;;;2.92;;
68475;SDS011;55464;48.266;14.188;2023-07-13T09:46:37;4.40;;;2.90;;
68475;SDS011;55464;48.266;14.188;2023-07-13T09:49:03;4.78;;;2.67;;
68475;SDS011;55464;48.266;14.188;2023-07-13T09:51:29;5.22;;;2.85;;
68475;SDS011;55464;48.266;14.188;2023-07-13T09:53:54;6.07;;;2.85;;
68475;SDS011;55464;48.266;14.188;2023-07-13T09:56:21;6.40;;;3.35;;
68475;SDS011;55464;48.266;14.188;2023-07-13T09:58:57;5.25;;;2.92;;
68475;SDS011;55464;48.266;14.188;2023-07-13T10:01:35;3.00;;;2.63;;
68475;SDS011;55464;48.266;14.188;2023-07-13T10:04:10;6.00;;;2.55;;
68475;SDS011;55464;48.266;14.188;2023-07-13T10:06:38;3.17;;;2.63;;
68475;SDS011;55464;48.266;14.188;2023-07-13T10:09:07;3.47;;;2.40;;
68475;SDS011;55464;48.266;14.188;2023-07-13T10:11:34;6.90;;;2.28;;
68475;SDS011;55464;48.266;14.188;2023-07-13T10:14:01;4.55;;;2.47;;
68475;SDS011;55464;48.266;14.188;2023-07-13T10:16:34;3.88;;;2.47;;
68475;SDS011;55464;48.266;14.188;2023-07-13T10:19:34;3.65;;;2.42;;
68475;SDS011;55464;48.266;14.188;2023-07-13T10:24:52;3.92;;;3.00;;
68475;SDS011;55464;48.266;14.188;2023-07-13T10:27:40;4.93;;;2.50;;
68475;SDS011;55464;48.266;14.188;2023-07-13T10:30:22;6.10;;;2.50;;
68475;SDS011;55464;48.266;14.188;2023-07-13T10:32:57;4.75;;;2.55;;
68475;SDS011;55464;48.266;14.188;2023-07-13T10:35:24;3.22;;;2.30;;
68475;SDS011;55464;48.266;14.188;2023-07-13T10:37:55;3.75;;;2.28;;
68475;SDS011;55464;48.266;14.188;2023-07-13T10:40:23;4.22;;;2.33;;
68475;SDS011;55464;48.266;14.188;2023-07-13T10:42:55;4.07;;;2.63;;
68475;SDS011;55464;48.266;14.188;2023-07-13T10:45:24;4.22;;;2.53;;
68475;SDS011;55464;48.266;14.188;2023-07-13T10:47:54;9.55;;;3.10;;
68475;SDS011;55464;48.266;14.188;2023-07-13T10:50:25;4.80;;;2.35;;
68475;SDS011;55464;48.266;14.188;2023-07-13T10:52:56;4.80;;;2.50;;
68475;SDS011;55464;48.266;14.188;2023-07-13T10:58:12;4.85;;;2.17;;
68475;SDS011;55464;48.266;14.188;2023-07-13T11:00:43;3.25;;;2.13;;
68475;SDS011;55464;48.266;14.188;2023-07-13T11:03:14;3.30;;;2.47;;
68475;SDS011;55464;48.266;14.188;2023-07-13T11:05:42;6.70;;;2.38;;
68475;SDS011;55464;48.266;14.188;2023-07-13T11:10:58;4.57;;;2.38;;
68475;SDS011;55464;48.266;14.188;2023-07-13T11:16:01;6.45;;;2.30;;
68475;SDS011;55464;48.266;14.188;2023-07-13T11:18:37;2.42;;;1.88;;
68475;SDS011;55464;48.266;14.188;2023-07-13T11:21:16;5.70;;;2.22;;
68475;SDS011;55464;48.266;14.188;2023-07-13T11:23:53;4.78;;;2.05;;
68475;SDS011;55464;48.266;14.188;2023-07-13T11:31:56;2.50;;;2.00;;
68475;SDS011;55464;48.266;14.188;2023-07-13T11:34:33;5.80;;;2.70;;
68475;SDS011;55464;48.266;14.188;2023-07-13T11:37:01;4.35;;;2.20;;
68475;SDS011;55464;48.266;14.188;2023-07-13T11:39:37;5.28;;;3.00;;
68475;SDS011;55464;48.266;14.188;2023-07-13T11:42:08;4.90;;;2.20;;
68475;SDS011;55464;48.266;14.188;2023-07-13T11:44:41;8.38;;;2.67;;
68475;SDS011;55464;48.266;14.188;2023-07-13T11:47:09;4.07;;;2.45;;
68475;SDS011;55464;48.266;14.188;2023-07-13T11:49:42;3.55;;;2.70;;
68475;SDS011;55464;48.266;14.188;2023-07-13T11:52:21;2.95;;;2.30;;
68475;SDS011;55464;48.266;14.188;2023-07-13T11:59:52;3.58;;;2.20;;
68475;SDS011;55464;48.266;14.188;2023-07-13T12:02:38;3.65;;;2.00;;
68475;SDS011;55464;48.266;14.188;2023-07-13T12:05:08;4.65;;;1.88;;
68475;SDS011;55464;48.266;14.188;2023-07-13T12:07:37;2.35;;;2.03;;
68475;SDS011;55464;48.266;14.188;2023-07-13T12:10:26;2.20;;;2.00;;
68475;SDS011;55464;48.266;14.188;2023-07-13T12:13:03;4.00;;;2.22;;
68475;SDS011;55464;48.266;14.188;2023-07-13T12:15:39;4.25;;;1.95;;
68475;SDS011;55464;48.266;14.188;2023-07-13T12:18:11;2.97;;;2.25;;
68475;SDS011;55464;48.266;14.188;2023-07-13T12:20:38;3.10;;;2.60;;
68475;SDS011;55464;48.266;14.188;2023-07-13T12:25:56;4.90;;;2.20;;
68475;SDS011;55464;48.266;14.188;2023-07-13T12:28:30;4.00;;;2.50;;
68475;SDS011;55464;48.266;14.188;2023-07-13T12:30:59;4.97;;;2.38;;
68475;SDS011;55464;48.266;14.188;2023-07-13T12:33:28;2.78;;;2.28;;
68475;SDS011;55464;48.266;14.188;2023-07-13T12:35:54;4.72;;;2.45;;
68475;SDS011;55464;48.266;14.188;2023-07-13T12:38:21;3.58;;;2.25;;
68475;SDS011;55464;48.266;14.188;2023-07-13T12:40:49;2.63;;;1.73;;
68475;SDS011;55464;48.266;14.188;2023-07-13T12:43:16;7.13;;;1.80;;
68475;SDS011;55464;48.266;14.188;2023-07-13T12:45:55;2.95;;;2.00;;
68475;SDS011;55464;48.266;14.188;2023-07-13T12:48:28;6.32;;;1.95;;
68475;SDS011;55464;48.266;14.188;2023-07-13T12:50:54;2.83;;;1.80;;
68475;SDS011;55464;48.266;14.188;2023-07-13T12:53:22;3.83;;;2.08;;
68475;SDS011;55464;48.266;14.188;2023-07-13T12:55:54;2.58;;;2.10;;
68475;SDS011;55464;48.266;14.188;2023-07-13T12:58:28;5.40;;;2.05;;
68475;SDS011;55464;48.266;14.188;2023-07-13T13:01:01;3.45;;;2.13;;
68475;SDS011;55464;48.266;14.188;2023-07-13T13:03:31;4.38;;;2.03;;
68475;SDS011;55464;48.266;14.188;2023-07-13T13:06:00;3.28;;;2.10;;
68475;SDS011;55464;48.266;14.188;2023-07-13T13:08:28;2.28;;;2.08;;
68475;SDS011;55464;48.266;14.188;2023-07-13T13:10:55;7.20;;;2.20;;
68475;SDS011;55464;48.266;14.188;2023-07-13T13:13:20;4.88;;;2.58;;
68475;SDS011;55464;48.266;14.188;2023-07-13T13:15:45;5.15;;;2.13;;
68475;SDS011;55464;48.266;14.188;2023-07-13T13:18:19;6.05;;;2.47;;
68475;SDS011;55464;48.266;14.188;2023-07-13T13:20:46;2.35;;;1.90;;
68475;SDS011;55464;48.266;14.188;2023-07-13T13:23:13;3.65;;;2.30;;
68475;SDS011;55464;48.266;14.188;2023-07-13T13:25:42;8.13;;;2.45;;
68475;SDS011;55464;48.266;14.188;2023-07-13T13:28:19;7.47;;;1.90;;
68475;SDS011;55464;48.266;14.188;2023-07-13T13:30:46;2.50;;;1.77;;
68475;SDS011;55464;48.266;14.188;2023-07-13T13:33:15;5.00;;;2.03;;
68475;SDS011;55464;48.266;14.188;2023-07-13T13:35:42;6.63;;;1.92;;
68475;SDS011;55464;48.266;14.188;2023-07-13T13:38:14;5.15;;;2.00;;
68475;SDS011;55464;48.266;14.188;2023-07-13T13:40:50;3.80;;;1.92;;
68475;SDS011;55464;48.266;14.188;2023-07-13T13:43:20;2.72;;;1.98;;
68475;SDS011;55464;48.266;14.188;2023-07-13T13:45:51;5.35;;;2.42;;
68475;SDS011;55464;48.266;14.188;2023-07-13T13:48:17;3.08;;;2.00;;
68475;SDS011;55464;48.266;14.188;2023-07-13T13:50:47;3.40;;;2.30;;
68475;SDS011;55464;48.266;14.188;2023-07-13T13:53:13;4.25;;;2.17;;
68475;SDS011;55464;48.266;14.188;2023-07-13T13:55:39;7.25;;;1.88;;
68475;SDS011;55464;48.266;14.188;2023-07-13T13:58:07;4.80;;;1.70;;
68475;SDS011;55464;48.266;14.188;2023-07-13T14:00:33;2.67;;;1.85;;
68475;SDS011;55464;48.266;14.188;2023-07-13T14:03:00;3.20;;;2.25;;
68475;SDS011;55464;48.266;14.188;2023-07-13T14:05:26;1.88;;;1.60;;
68475;SDS011;55464;48.266;14.188;2023-07-13T14:07:52;3.83;;;1.65;;
68475;SDS011;55464;48.266;14.188;2023-07-13T14:10:18;5.60;;;1.77;;
68475;SDS011;55464;48.266;14.188;2023-07-13T14:12:45;3.40;;;1.50;;
68475;SDS011;55464;48.266;14.188;2023-07-13T14:15:15;3.78;;;1.67;;
68475;SDS011;55464;48.266;14.188;2023-07-13T14:17:45;2.97;;;1.83;;
68475;SDS011;55464;48.266;14.188;2023-07-13T14:20:11;2.08;;;1.50;;
68475;SDS011;55464;48.266;14.188;2023-07-13T14:22:38;4.03;;;1.45;;
68475;SDS011;55464;48.266;14.188;2023-07-13T14:25:04;5.10;;;1.42;;
68475;SDS011;55464;48.266;14.188;2023-07-13T14:27:30;2.35;;;1.20;;
68475;SDS011;55464;48.266;14.188;2023-07-13T14:29:55;2.75;;;1.45;;
68475;SDS011;55464;48.266;14.188;2023-07-13T14:32:20;2.92;;;1.30;;
68475;SDS011;55464;48.266;14.188;2023-07-13T14:34:46;8.27;;;1.65;;
68475;SDS011;55464;48.266;14.188;2023-07-13T14:37:12;2.38;;;1.42;;
68475;SDS011;55464;48.266;14.188;2023-07-13T14:39:39;3.85;;;1.58;;
68475;SDS011;55464;48.266;14.188;2023-07-13T14:42:08;6.00;;;1.50;;
68475;SDS011;55464;48.266;14.188;2023-07-13T14:44:34;5.78;;;1.50;;
68475;SDS011;55464;48.266;14.188;2023-07-13T14:47:01;3.05;;;1.27;;
68475;SDS011;55464;48.266;14.188;2023-07-13T14:51:58;3.28;;;1.42;;
68475;SDS011;55464;48.266;14.188;2023-07-13T14:54:26;3.33;;;1.20;;
68475;SDS011;55464;48.266;14.188;2023-07-13T14:56:51;4.15;;;1.38;;
68475;SDS011;55464;48.266;14.188;2023-07-13T14:59:17;3.53;;;1.60;;
68475;SDS011;55464;48.266;14.188;2023-07-13T15:01:45;10.05;;;2.58;;
68475;SDS011;55464;48.266;14.188;2023-07-13T15:04:13;3.22;;;1.20;;
68475;SDS011;55464;48.266;14.188;2023-07-13T15:06:56;2.25;;;1.35;;
68475;SDS011;55464;48.266;14.188;2023-07-13T15:09:23;4.22;;;2.15;;
68475;SDS011;55464;48.266;14.188;2023-07-13T15:11:51;4.78;;;1.30;;
68475;SDS011;55464;48.266;14.188;2023-07-13T15:14:19;2.40;;;1.02;;
68475;SDS011;55464;48.266;14.188;2023-07-13T15:16:46;1.48;;;1.00;;
68475;SDS011;55464;48.266;14.188;2023-07-13T15:19:14;2.40;;;0.93;;
68475;SDS011;55464;48.266;14.188;2023-07-13T15:21:41;2.50;;;1.10;;
68475;SDS011;55464;48.266;14.188;2023-07-13T15:24:08;5.07;;;1.40;;
68475;SDS011;55464;48.266;14.188;2023-07-13T15:26:35;5.72;;;1.20;;
68475;SDS011;55464;48.266;14.188;2023-07-13T15:29:02;7.70;;;1.42;;
68475;SDS011;55464;48.266;14.188;2023-07-13T15:31:28;3.00;;;1.33;;